createdAt,value
2018-03-26T04:45:34.135Z,0
2018-03-26T04:46:17.768Z,0
2018-03-26T04:46:58.168Z,0
2018-03-26T04:47:38.796Z,0
2018-03-26T04:48:18.967Z,0
2018-03-26T04:48:59.380Z,0
2018-03-26T04:49:39.806Z,0
2018-03-26T04:50:21.609Z,0
2018-03-26T04:51:01.958Z,0
2018-03-26T04:51:42.382Z,0
2018-03-26T04:52:22.808Z,0
2018-03-26T04:53:03.223Z,0
2018-03-26T04:53:43.620Z,0
2018-03-26T04:54:24.011Z,0
2018-03-26T04:55:04.440Z,0
2018-03-26T04:55:44.840Z,0
2018-03-26T04:56:25.270Z,0
2018-03-26T04:57:05.653Z,0
2018-03-26T04:57:46.026Z,0
2018-03-26T04:58:26.536Z,4
2018-03-26T04:59:06.878Z,4
2018-03-26T04:59:47.325Z,0
2018-03-26T05:00:27.692Z,0
2018-03-26T05:01:08.080Z,0
2018-03-26T05:01:48.946Z,0
2018-03-26T05:02:29.040Z,4
2018-03-26T05:03:09.456Z,4
2018-03-26T05:03:49.859Z,0
2018-03-26T05:04:30.275Z,4
2018-03-26T05:05:10.739Z,4
2018-03-26T05:05:51.098Z,4
2018-03-26T05:06:31.499Z,4
2018-03-26T05:07:11.903Z,4
2018-03-26T05:07:52.291Z,4
2018-03-26T05:08:32.713Z,4
2018-03-26T05:09:13.066Z,4
2018-03-26T05:09:53.451Z,8
2018-03-26T05:10:33.855Z,12
2018-03-26T05:11:14.413Z,12
2018-03-26T05:11:54.797Z,12
2018-03-26T05:12:35.224Z,12
2018-03-26T05:13:15.655Z,12
2018-03-26T05:13:56.036Z,16
2018-03-26T05:14:36.468Z,20
2018-03-26T05:15:16.853Z,16
2018-03-26T05:15:57.301Z,20
2018-03-26T05:16:37.664Z,24
2018-03-26T05:17:18.065Z,28
2018-03-26T05:17:58.642Z,28
2018-03-26T05:18:39.096Z,28
2018-03-26T05:19:19.478Z,28
2018-03-26T05:19:59.882Z,36
2018-03-26T05:20:40.263Z,36
2018-03-26T05:21:20.650Z,40
2018-03-26T05:22:01.068Z,48
2018-03-26T05:22:41.440Z,52
2018-03-26T05:23:21.898Z,56
2018-03-26T05:24:02.235Z,60
2018-03-26T05:24:42.648Z,68
2018-03-26T05:25:23.086Z,72
2018-03-26T05:26:03.469Z,76
2018-03-26T05:26:43.972Z,80
2018-03-26T05:27:24.408Z,88
2018-03-26T05:28:04.874Z,92
2018-03-26T05:28:45.239Z,100
2018-03-26T05:29:25.711Z,104
2018-03-26T05:30:06.042Z,112
2018-03-26T05:30:46.437Z,116
2018-03-26T05:31:26.842Z,124
2018-03-26T05:32:07.291Z,132
2018-03-26T05:32:47.710Z,136
2018-03-26T05:33:28.100Z,148
2018-03-26T05:34:08.459Z,152
2018-03-26T05:34:48.877Z,160
2018-03-26T05:35:29.356Z,168
2018-03-26T05:36:10.068Z,176
2018-03-26T05:36:50.382Z,188
2018-03-26T05:37:30.851Z,200
2018-03-26T05:38:11.230Z,212
2018-03-26T05:38:51.532Z,220
2018-03-26T05:39:32.491Z,228
2018-03-26T05:40:12.760Z,236
2018-03-26T05:40:53.940Z,252
2018-03-26T05:41:34.592Z,264
2018-03-26T05:42:15.028Z,280
2018-03-26T05:42:55.407Z,292
2018-03-26T05:43:35.836Z,304
2018-03-26T05:44:16.302Z,316
2018-03-26T05:44:56.738Z,336
2018-03-26T05:45:37.180Z,352
2018-03-26T05:46:17.601Z,368
2018-03-26T05:46:58.066Z,392
2018-03-26T05:47:38.397Z,412
2018-03-26T05:48:18.940Z,432
2018-03-26T05:48:59.358Z,452
2018-03-26T05:49:40.281Z,468
2018-03-26T05:50:21.337Z,492
2018-03-26T05:51:01.719Z,508
2018-03-26T05:51:42.150Z,536
2018-03-26T05:52:22.604Z,568
2018-03-26T05:53:03.447Z,592
2018-03-26T05:53:43.824Z,628
2018-03-26T05:54:24.300Z,660
2018-03-26T05:55:04.739Z,684
2018-03-26T05:55:45.341Z,708
2018-03-26T05:56:25.953Z,724
2018-03-26T05:57:06.362Z,744
2018-03-26T05:57:46.829Z,764
2018-03-26T05:58:27.318Z,784
2018-03-26T05:59:07.775Z,808
2018-03-26T05:59:48.279Z,840
2018-03-26T06:00:28.679Z,860
2018-03-26T06:01:09.124Z,892
2018-03-26T06:01:49.606Z,940
2018-03-26T06:02:30.509Z,1004
2018-03-26T06:03:10.860Z,1056
2018-03-26T06:03:51.297Z,1084
2018-03-26T06:04:31.771Z,1136
2018-03-26T06:05:12.146Z,1228
2018-03-26T06:05:55.989Z,1348
2018-03-26T06:06:36.469Z,1408
2018-03-26T06:07:16.833Z,1452
2018-03-26T06:07:57.202Z,1484
2018-03-26T06:08:37.675Z,1540
2018-03-26T06:09:17.980Z,1580
2018-03-26T06:09:58.434Z,1620
2018-03-26T06:10:38.815Z,1676
2018-03-26T06:11:19.233Z,1724
2018-03-26T06:11:59.735Z,1832
2018-03-26T06:12:40.274Z,1920
2018-03-26T06:15:06.310Z,2192
2018-03-26T06:15:46.906Z,2260
2018-03-26T06:16:27.341Z,2312
2018-03-26T06:17:07.719Z,2396
2018-03-26T06:17:48.206Z,2440
2018-03-26T06:18:28.586Z,2436
2018-03-26T06:19:09.019Z,2572
2018-03-26T06:19:49.503Z,2536
2018-03-26T06:20:29.893Z,2464
2018-03-26T06:21:10.315Z,2360
2018-03-26T06:21:50.771Z,2376
2018-03-26T06:24:24.331Z,2452
2018-03-26T06:25:04.737Z,2448
2018-03-26T06:25:45.182Z,2232
2018-03-26T06:26:25.898Z,2008
2018-03-26T06:27:06.366Z,1852
2018-03-26T06:28:24.134Z,2052
2018-03-26T06:30:35.115Z,2060
2018-03-26T06:33:11.687Z,2344
2018-03-26T06:47:30.602Z,4448
2018-03-26T06:51:24.276Z,3668
2018-03-26T06:52:09.547Z,3648
2018-03-26T06:53:00.014Z,3628
2018-03-26T06:53:55.407Z,4040
2018-03-26T06:54:50.824Z,4236
2018-03-26T06:55:31.727Z,3636
2018-03-26T06:57:30.796Z,2948
2018-03-26T06:58:18.116Z,2860
2018-03-26T06:59:18.547Z,3088
2018-03-26T07:00:17.941Z,2732
2018-03-26T07:00:58.388Z,2392
2018-03-26T07:01:39.088Z,1792
2018-03-26T07:02:20.043Z,1804
2018-03-26T07:03:15.300Z,1520
2018-03-26T07:04:17.193Z,1300
2018-03-26T07:05:12.844Z,976
2018-03-26T07:09:21.331Z,720
2018-03-26T07:10:16.418Z,676
2018-03-26T07:15:45.663Z,712
2018-03-26T07:16:26.056Z,836
2018-03-26T07:17:21.153Z,1088
2018-03-26T07:18:16.468Z,1340
2018-03-26T07:19:11.454Z,1236
2018-03-26T07:20:06.854Z,1168
2018-03-26T07:20:47.287Z,1016
2018-03-26T07:24:51.313Z,900
2018-03-26T07:36:34.357Z,628
2018-03-26T07:37:17.073Z,528
2018-03-26T07:37:57.369Z,460
2018-03-26T07:38:40.848Z,472
2018-03-26T07:39:21.298Z,512
2018-03-26T07:40:01.628Z,540
2018-03-26T07:40:42.092Z,580
2018-03-26T07:41:22.548Z,628
2018-03-26T07:42:03.126Z,584
2018-03-26T07:42:43.482Z,592
2018-03-26T07:43:23.937Z,628
2018-03-26T07:44:05.153Z,672
2018-03-26T07:44:45.101Z,708
2018-03-26T07:45:25.438Z,764
2018-03-26T07:46:05.858Z,784
2018-03-26T07:46:46.312Z,900
2018-03-26T07:47:26.698Z,924
2018-03-26T07:48:07.138Z,784
2018-03-26T07:48:47.498Z,724
2018-03-26T07:49:27.954Z,692
2018-03-26T07:50:08.321Z,712
2018-03-26T07:50:48.904Z,672
2018-03-26T07:51:29.294Z,676
2018-03-26T07:52:10.487Z,652
2018-03-26T07:52:50.931Z,652
2018-03-26T07:53:31.371Z,624
2018-03-26T07:54:11.758Z,636
2018-03-26T07:54:52.540Z,632
2018-03-26T07:55:33.855Z,584
2018-03-26T07:56:15.143Z,592
2018-03-26T07:56:55.923Z,620
2018-03-26T07:57:36.678Z,652
2018-03-26T07:58:17.209Z,708
2018-03-26T07:58:57.533Z,816
2018-03-26T07:59:39.318Z,824
2018-03-26T08:00:21.310Z,832
2018-03-26T08:01:01.576Z,856
2018-03-26T08:01:42.708Z,856
2018-03-26T08:02:23.300Z,772
2018-03-26T08:03:05.123Z,744
2018-03-26T08:03:45.440Z,768
2018-03-26T08:04:25.886Z,872
2018-03-26T08:05:06.465Z,880
2018-03-26T08:05:47.161Z,904
2018-03-26T08:06:27.422Z,956
2018-03-26T08:07:07.765Z,960
2018-03-26T08:07:49.169Z,920
2018-03-26T08:08:29.683Z,840
2018-03-26T08:09:10.136Z,844
2018-03-26T08:09:50.715Z,864
2018-03-26T08:10:31.357Z,988
2018-03-26T08:11:11.849Z,1012
2018-03-26T08:11:53.124Z,964
2018-03-26T08:12:33.455Z,976
2018-03-26T08:13:13.880Z,1044
2018-03-26T08:13:54.577Z,1240
2018-03-26T08:14:34.936Z,1396
2018-03-26T08:16:53.771Z,2520
2018-03-26T08:17:34.167Z,2296
2018-03-26T08:18:14.582Z,2128
2018-03-26T08:18:54.971Z,2380
2018-03-26T08:19:35.388Z,3012
2018-03-26T08:20:15.778Z,2300
2018-03-26T08:20:56.250Z,2188
2018-03-26T08:21:36.650Z,2352
2018-03-26T08:22:17.125Z,2632
2018-03-26T08:22:57.490Z,3212
2018-03-26T08:23:37.918Z,3204
2018-03-26T08:24:18.300Z,3140
2018-03-26T08:24:58.747Z,3084
2018-03-26T08:25:39.175Z,3200
2018-03-26T08:26:19.587Z,3284
2018-03-26T08:27:00.025Z,3276
2018-03-26T08:27:40.442Z,3564
2018-03-26T08:28:20.885Z,3072
2018-03-26T08:29:01.248Z,2764
2018-03-26T08:29:41.656Z,3148
2018-03-26T08:30:22.087Z,4096
2018-03-26T08:31:02.518Z,3844
2018-03-26T08:31:42.898Z,3288
2018-03-26T08:32:23.360Z,3724
2018-03-26T08:33:03.791Z,3888
2018-03-26T08:33:44.299Z,3780
2018-03-26T08:34:24.776Z,4000
2018-03-26T08:35:05.160Z,3696
2018-03-26T08:35:45.605Z,3300
2018-03-26T08:36:26.067Z,3388
2018-03-26T08:37:06.549Z,3996
2018-03-26T08:37:46.955Z,3956
2018-03-26T08:38:27.383Z,3396
2018-03-26T08:39:07.817Z,3080
2018-03-26T08:39:48.283Z,3144
2018-03-26T08:40:28.677Z,3396
2018-03-26T08:41:09.122Z,3720
2018-03-26T08:41:49.485Z,3640
2018-03-26T08:42:29.936Z,3584
2018-03-26T08:43:10.333Z,3700
2018-03-26T08:43:50.766Z,3608
2018-03-26T08:44:31.231Z,3840
2018-03-26T08:45:11.692Z,3828
2018-03-26T08:45:52.094Z,3688
2018-03-26T08:46:32.520Z,3576
2018-03-26T08:47:12.933Z,3532
2018-03-26T08:47:53.384Z,3512
2018-03-26T08:48:33.843Z,3448
2018-03-26T08:49:14.230Z,3348
2018-03-26T08:49:54.907Z,3316
2018-03-26T08:50:35.276Z,3272
2018-03-26T08:51:15.728Z,3208
2018-03-26T08:51:56.085Z,3168
2018-03-26T08:52:36.676Z,3212
2018-03-26T08:53:16.993Z,3200
2018-03-26T08:53:57.385Z,3260
2018-03-26T08:54:37.780Z,3316
2018-03-26T08:55:18.234Z,3344
2018-03-26T08:55:58.612Z,3368
2018-03-26T08:56:40.017Z,3444
2018-03-26T08:57:20.742Z,3500
2018-03-26T08:58:01.323Z,3512
2018-03-26T08:58:41.718Z,3524
2018-03-26T08:59:22.296Z,3588
2018-03-26T09:00:02.851Z,3600
2018-03-26T09:00:43.448Z,3620
2018-03-26T09:01:23.822Z,3700
2018-03-26T09:02:04.280Z,3780
2018-03-26T09:02:44.657Z,3808
2018-03-26T09:03:25.073Z,3692
2018-03-26T09:04:05.523Z,3384
2018-03-26T09:04:45.970Z,3260
2018-03-26T09:10:01.025Z,3240
2018-03-26T09:10:41.670Z,3208
2018-03-26T09:11:22.940Z,3176
2018-03-26T09:12:03.637Z,3140
2018-03-26T09:12:44.203Z,3124
2018-03-26T09:13:25.307Z,3140
2018-03-26T09:14:06.886Z,3132
2018-03-26T09:14:46.785Z,3128
2018-03-26T09:15:27.349Z,3096
2018-03-26T09:16:07.906Z,3056
2018-03-26T09:16:48.659Z,3012
2018-03-26T09:17:29.229Z,3024
2018-03-26T09:18:11.119Z,3016
2018-03-26T09:21:12.011Z,2948
2018-03-26T09:21:52.904Z,2920
2018-03-26T09:22:33.588Z,2932
2018-03-26T09:23:14.400Z,2932
2018-03-26T09:23:55.757Z,2956
2018-03-26T09:24:36.042Z,2904
2018-03-26T09:26:33.849Z,2568
2018-03-26T09:27:14.621Z,2468
2018-03-26T09:27:55.172Z,2484
2018-03-26T09:28:35.883Z,2572
2018-03-26T09:29:16.360Z,2568
2018-03-26T09:29:57.379Z,2564
2018-03-26T09:30:38.160Z,2552
2018-03-26T09:31:18.746Z,2568
2018-03-26T09:32:00.060Z,2604
2018-03-26T09:32:40.585Z,2600
2018-03-26T09:33:22.206Z,2620
2018-03-26T09:34:02.929Z,2436
2018-03-26T09:34:43.442Z,2468
2018-03-26T09:35:25.060Z,2496
2018-03-26T09:36:05.694Z,2512
2018-03-26T09:36:45.907Z,2512
2018-03-26T09:37:26.538Z,2536
2018-03-26T09:38:07.326Z,2528
2018-03-26T09:38:48.582Z,2516
2018-03-26T09:39:45.840Z,2480
2018-03-26T09:40:30.135Z,2552
2018-03-26T09:41:26.047Z,2560
2018-03-26T09:42:30.308Z,2592
2018-03-26T09:43:13.637Z,2608
2018-03-26T09:44:09.136Z,2612
2018-03-26T09:44:49.840Z,2616
2018-03-26T09:45:30.371Z,2612
2018-03-26T09:46:11.582Z,2656
2018-03-26T09:46:51.677Z,2656
2018-03-26T09:47:32.372Z,2652
2018-03-26T09:48:13.564Z,2644
2018-03-26T09:48:53.528Z,2636
2018-03-26T09:49:34.553Z,2604
2018-03-26T09:50:15.054Z,2600
2018-03-26T09:50:55.634Z,2568
2018-03-26T09:51:36.235Z,2540
2018-03-26T09:52:16.666Z,2572
2018-03-26T09:52:57.145Z,2552
2018-03-26T09:53:37.597Z,2592
2018-03-26T09:54:17.976Z,2588
2018-03-26T09:54:58.406Z,2576
2018-03-26T09:55:38.892Z,2592
2018-03-26T09:56:19.316Z,2588
2018-03-26T09:56:59.822Z,2576
2018-03-26T09:57:40.255Z,2584
2018-03-26T09:58:20.946Z,2536
2018-03-26T09:59:01.402Z,2480
2018-03-26T09:59:41.804Z,2440
2018-03-26T10:00:22.288Z,2416
2018-03-26T10:01:02.699Z,2416
2018-03-26T10:01:43.068Z,2384
2018-03-26T10:02:23.487Z,2360
2018-03-26T10:03:03.879Z,2364
2018-03-26T10:03:45.081Z,2376
2018-03-26T10:04:25.377Z,2392
2018-03-26T10:05:06.800Z,2404
2018-03-26T10:05:47.576Z,2408
2018-03-26T10:06:27.662Z,2432
2018-03-26T10:07:08.261Z,2548
2018-03-26T10:07:49.087Z,2652
2018-03-26T10:08:29.498Z,2704
2018-03-26T10:46:22.823Z,2076
2018-03-26T10:47:02.930Z,2124
2018-03-26T10:47:43.362Z,1976
2018-03-26T10:48:23.807Z,2008
2018-03-26T10:49:04.232Z,2104
2018-03-26T10:49:45.327Z,2064
2018-03-26T10:50:26.475Z,2084
2018-03-26T10:51:06.825Z,1676
2018-03-26T10:51:47.377Z,1820
2018-03-26T10:52:28.160Z,1976
2018-03-26T10:53:08.348Z,1968
2018-03-26T10:53:49.623Z,2112
2018-03-26T10:54:29.829Z,2136
2018-03-26T10:55:11.042Z,2164
2018-03-26T10:55:51.218Z,2160
2018-03-26T10:56:31.817Z,2156
2018-03-26T10:57:12.224Z,2108
2018-03-26T10:57:52.798Z,1964
2018-03-26T10:58:33.235Z,2052
2018-03-26T10:59:14.433Z,1820
2018-03-26T10:59:54.469Z,2132
2018-03-26T11:00:34.876Z,2080
2018-03-26T11:01:15.338Z,2156
2018-03-26T11:01:55.746Z,2024
2018-03-26T11:02:36.306Z,1732
2018-03-26T11:03:16.737Z,1712
2018-03-26T11:03:57.112Z,2224
2018-03-26T11:04:37.542Z,2248
2018-03-26T11:05:18.008Z,2268
2018-03-26T11:05:58.429Z,2284
2018-03-26T11:06:38.878Z,2272
2018-03-26T11:07:19.302Z,2248
2018-03-26T11:07:59.721Z,2304
2018-03-26T11:08:40.671Z,2292
2018-03-26T11:09:21.445Z,2212
2018-03-26T11:10:01.930Z,2212
2018-03-26T11:10:42.370Z,2224
2018-03-26T11:11:22.813Z,2224
2018-03-26T11:12:03.370Z,2204
2018-03-26T11:12:43.806Z,2220
2018-03-26T11:13:24.154Z,2220
2018-03-26T11:14:11.274Z,2216
2018-03-26T11:14:51.706Z,2212
2018-03-26T11:15:32.122Z,2224
2018-03-26T11:16:12.533Z,2244
2018-03-26T11:16:52.993Z,2256
2018-03-26T11:17:33.358Z,1872
2018-03-26T11:18:13.790Z,1852
2018-03-26T11:18:54.183Z,2072
2018-03-26T11:19:34.630Z,2316
2018-03-26T11:20:15.072Z,2296
2018-03-26T11:20:55.516Z,2336
2018-03-26T11:21:35.992Z,2260
2018-03-26T11:22:16.449Z,2280
2018-03-26T11:22:56.860Z,2268
2018-03-26T11:23:37.332Z,2168
2018-03-26T11:24:17.707Z,1880
2018-03-26T11:24:58.237Z,1928
2018-03-26T11:25:38.609Z,2016
2018-03-26T11:26:19.042Z,2072
2018-03-26T11:26:59.450Z,2472
2018-03-26T11:27:39.867Z,2176
2018-03-26T11:28:20.330Z,2300
2018-03-26T11:29:00.760Z,2544
2018-03-26T11:29:41.201Z,2504
2018-03-26T11:30:21.632Z,2364
2018-03-26T11:31:02.028Z,2284
2018-03-26T11:31:42.465Z,2368
2018-03-26T11:32:22.842Z,2348
2018-03-26T11:33:03.320Z,2308
2018-03-26T11:33:43.812Z,2344
2018-03-26T11:34:24.532Z,2324
2018-03-26T11:35:05.018Z,2308
2018-03-26T11:35:45.378Z,2300
2018-03-26T11:36:26.004Z,2296
2018-03-26T11:37:06.334Z,2292
2018-03-26T11:37:47.476Z,2308
2018-03-26T11:38:27.444Z,2332
2018-03-26T11:39:07.891Z,2360
2018-03-26T11:39:48.335Z,2356
2018-03-26T11:40:28.763Z,2360
2018-03-26T11:41:09.187Z,2364
2018-03-26T11:41:50.493Z,2340
2018-03-26T11:42:31.866Z,2180
2018-03-26T11:43:11.806Z,2148
2018-03-26T11:43:53.863Z,2140
2018-03-26T11:44:34.065Z,2140
2018-03-26T11:45:15.366Z,2164
2018-03-26T11:45:56.105Z,2276
2018-03-26T11:46:37.766Z,2228
2018-03-26T11:47:18.868Z,2308
2018-03-26T11:47:58.812Z,2272
2018-03-26T11:50:44.494Z,2064
2018-03-26T11:51:25.215Z,2124
2018-03-26T11:52:06.180Z,2168
2018-03-26T11:52:46.706Z,2204
2018-03-26T11:53:27.727Z,2292
2018-03-26T11:54:10.703Z,2384
2018-03-26T11:54:49.024Z,2412
2018-03-26T11:55:30.416Z,2484
2018-03-26T11:56:12.346Z,2400
2018-03-26T11:56:53.301Z,2092
2018-03-26T11:57:34.350Z,2056
2018-03-26T11:58:14.982Z,2160
2018-03-26T11:58:56.781Z,2436
2018-03-26T11:59:37.086Z,2476
2018-03-26T12:00:18.125Z,2552
2018-03-26T12:00:59.584Z,2600
2018-03-26T12:01:40.812Z,2160
2018-03-26T12:02:22.079Z,2164
2018-03-26T12:03:04.091Z,2220
2018-03-26T12:03:46.843Z,2228
2018-03-26T12:04:31.238Z,2188
2018-03-26T12:05:11.900Z,2144
2018-03-26T12:05:52.682Z,2096
2018-03-26T12:06:33.424Z,2508
2018-03-26T12:07:16.086Z,2412
2018-03-26T12:07:57.204Z,2560
2018-03-26T12:08:39.796Z,2128
2018-03-26T12:09:20.095Z,2048
2018-03-26T12:10:02.796Z,2000
2018-03-26T12:10:43.549Z,2004
2018-03-26T12:11:25.217Z,2072
2018-03-26T12:12:05.590Z,2112
2018-03-26T12:12:47.272Z,2128
2018-03-26T12:18:36.673Z,1900
2018-03-26T12:19:18.227Z,1856
2018-03-26T12:19:59.826Z,1832
2018-03-26T12:20:40.509Z,1816
2018-03-26T12:21:22.059Z,1824
2018-03-26T12:22:01.983Z,2176
2018-03-26T12:22:42.522Z,2288
2018-03-26T12:23:23.308Z,2228
2018-03-26T12:24:04.493Z,2284
2018-03-26T12:24:44.958Z,2340
2018-03-26T12:25:25.709Z,2280
2018-03-26T12:26:06.629Z,2140
2018-03-26T12:26:47.037Z,2136
2018-03-26T12:27:27.588Z,1936
2018-03-26T12:28:10.298Z,1944
2018-03-26T12:28:50.264Z,1992
2018-03-26T12:29:33.075Z,2264
2018-03-26T12:30:14.429Z,2308
2018-03-26T12:30:55.063Z,2292
2018-03-26T12:31:35.765Z,2228
2018-03-26T12:32:18.198Z,2116
2018-03-26T12:32:59.287Z,2160
2018-03-26T12:33:40.808Z,2144
2018-03-26T12:34:22.656Z,2128
2018-03-26T12:35:02.900Z,2108
2018-03-26T12:35:44.052Z,2124
2018-03-26T12:36:24.781Z,2088
2018-03-26T12:37:06.657Z,2000
2018-03-26T12:37:47.236Z,1920
2018-03-26T12:38:27.753Z,1864
2018-03-26T12:39:08.160Z,1860
2018-03-26T12:39:49.412Z,1764
2018-03-26T12:40:30.470Z,1780
2018-03-26T12:41:11.100Z,1908
2018-03-26T12:41:51.847Z,1932
2018-03-26T12:42:34.772Z,1952
2018-03-26T12:43:15.955Z,1996
2018-03-26T12:43:58.294Z,2016
2018-03-26T12:44:37.030Z,1996
2018-03-26T12:45:17.632Z,1996
2018-03-26T12:45:58.001Z,2012
2018-03-26T12:46:39.335Z,2052
2018-03-26T12:47:20.308Z,2096
2018-03-26T12:48:02.165Z,2092
2018-03-26T12:48:42.567Z,2096
2018-03-26T12:49:24.283Z,2072
2018-03-26T12:50:05.367Z,2060
2018-03-26T12:50:47.162Z,2084
2018-03-26T12:51:27.704Z,2108
2018-03-26T12:52:09.285Z,2124
2018-03-26T12:52:50.344Z,2140
2018-03-26T12:59:33.886Z,2152
2018-03-26T13:03:30.472Z,1956
2018-03-26T13:08:57.065Z,1944
2018-03-26T13:12:00.813Z,1996
2018-03-26T13:12:41.372Z,1988
2018-03-26T13:13:22.035Z,1984
2018-03-26T13:14:03.111Z,2012
2018-03-26T13:14:44.752Z,2016
2018-03-26T13:15:25.182Z,1936
2018-03-26T13:16:05.587Z,2012
2018-03-26T13:16:45.976Z,2000
2018-03-26T13:17:27.167Z,1992
2018-03-26T13:18:08.920Z,1976
2018-03-26T13:18:50.236Z,2000
2018-03-26T13:19:29.838Z,1988
2018-03-26T13:20:10.374Z,1980
2018-03-26T13:20:50.811Z,1964
2018-03-26T13:21:31.196Z,1956
2018-03-26T13:22:11.653Z,1988
2018-03-26T13:22:52.060Z,2024
2018-03-26T13:23:33.758Z,2044
2018-03-26T13:24:14.053Z,2080
2018-03-26T13:24:54.699Z,2096
2018-03-26T13:25:35.208Z,2104
2018-03-26T13:26:15.835Z,2128
2018-03-26T13:26:56.373Z,2140
2018-03-26T13:27:38.982Z,2140
2018-03-26T13:28:19.877Z,2144
2018-03-26T13:29:00.232Z,2140
2018-03-26T13:29:40.693Z,2136
2018-03-26T13:30:23.029Z,2140
2018-03-26T13:31:04.545Z,2176
2018-03-26T13:31:46.762Z,2244
2018-03-26T13:32:27.357Z,2216
2018-03-26T13:33:07.942Z,2188
2018-03-26T13:33:49.674Z,2144
2018-03-26T13:34:29.877Z,2116
2018-03-26T13:35:11.660Z,2028
2018-03-26T13:35:52.238Z,2020
2018-03-26T13:36:32.866Z,2040
2018-03-26T13:37:15.225Z,1992
2018-03-26T13:37:57.242Z,1952
2018-03-26T13:38:38.046Z,1940
2018-03-26T13:39:17.854Z,1916
2018-03-26T13:39:58.376Z,1916
2018-03-26T13:40:39.760Z,1924
2018-03-26T13:41:19.673Z,1900
2018-03-26T13:42:00.188Z,1840
2018-03-26T13:42:40.655Z,1880
2018-03-26T13:43:21.063Z,1896
2018-03-26T13:44:01.486Z,1928
2018-03-26T13:44:41.923Z,1916
2018-03-26T13:45:22.389Z,1908
2018-03-26T13:46:02.739Z,1900
2018-03-26T13:46:43.436Z,1920
2018-03-26T13:47:23.921Z,1972
2018-03-26T13:48:04.313Z,1940
2018-03-26T13:48:44.704Z,1840
2018-03-26T13:49:25.209Z,1812
2018-03-26T13:50:05.615Z,1772
2018-03-26T13:50:47.241Z,1756
2018-03-26T13:51:27.122Z,1756
2018-03-26T13:52:07.502Z,1864
2018-03-26T13:52:48.156Z,1904
2018-03-26T13:53:28.921Z,1956
2018-03-26T13:54:10.333Z,1992
2018-03-26T13:54:52.280Z,2016
2018-03-26T13:55:31.728Z,2036
2018-03-26T13:56:12.357Z,2100
2018-03-26T13:56:52.761Z,2072
2018-03-26T13:57:33.215Z,2088
2018-03-26T13:58:13.834Z,2096
2018-03-26T13:58:55.785Z,2064
2018-03-26T13:59:36.367Z,1988
2018-03-26T14:00:16.862Z,1920
2018-03-26T14:00:57.330Z,1772
2018-03-26T14:01:37.767Z,1832
2018-03-26T14:02:18.213Z,1776
2018-03-26T14:02:59.313Z,1744
2018-03-26T14:03:40.593Z,1712
2018-03-26T14:04:21.098Z,1672
2018-03-26T14:05:01.523Z,1680
2018-03-26T14:05:41.931Z,1660
2018-03-26T14:06:23.351Z,1668
2018-03-26T14:07:04.552Z,1680
2018-03-26T14:07:45.077Z,1660
2018-03-26T14:08:25.538Z,1656
2018-03-26T14:09:06.032Z,1696
2018-03-26T14:09:47.165Z,1764
2018-03-26T14:10:27.670Z,1772
2018-03-26T14:11:08.337Z,1748
2018-03-26T14:11:48.749Z,1628
2018-03-26T14:12:29.316Z,1652
2018-03-26T14:13:12.387Z,1688
2018-03-26T14:13:52.415Z,1740
2018-03-26T14:14:32.270Z,1744
2018-03-26T14:15:13.065Z,1740
2018-03-26T14:15:53.591Z,1804
2018-03-26T14:16:34.627Z,1844
2018-03-26T14:17:14.744Z,1856
2018-03-26T14:17:56.177Z,1936
2018-03-26T14:18:37.468Z,2012
2018-03-26T14:19:17.836Z,2052
2018-03-26T14:19:58.257Z,1820
2018-03-26T14:20:38.700Z,1788
2018-03-26T14:21:19.054Z,1768
2018-03-26T14:21:59.467Z,1744
2018-03-26T14:22:40.317Z,1692
2018-03-26T14:23:20.754Z,1644
2018-03-26T14:24:01.151Z,1616
2018-03-26T14:24:42.442Z,1592
2018-03-26T14:25:22.946Z,1560
2018-03-26T14:26:03.328Z,1572
2018-03-26T14:26:44.858Z,1628
2018-03-26T14:27:25.435Z,1700
2018-03-26T14:28:06.687Z,1676
2018-03-26T14:28:48.133Z,1596
2018-03-26T14:29:28.246Z,1592
2018-03-26T14:30:08.650Z,1596
2018-03-26T14:30:49.118Z,1608
2018-03-26T14:31:32.617Z,1868
2018-03-26T14:32:13.476Z,1568
2018-03-26T14:32:53.931Z,1492
2018-03-26T14:33:34.434Z,1440
2018-03-26T14:34:14.800Z,1400
2018-03-26T14:34:55.280Z,1380
2018-03-26T14:35:35.761Z,1392
2018-03-26T14:37:35.054Z,1536
2018-03-26T14:38:15.464Z,1536
2018-03-26T14:38:55.892Z,1488
2018-03-26T14:39:37.463Z,1436
2018-03-26T14:40:17.811Z,1376
2018-03-26T14:40:58.238Z,1320
2018-03-26T14:41:39.006Z,1236
2018-03-26T14:42:19.391Z,1180
2018-03-26T14:43:00.631Z,1116
2018-03-26T14:43:41.770Z,1032
2018-03-26T14:44:21.550Z,960
2018-03-26T14:45:02.294Z,900
2018-03-26T14:45:43.017Z,860
2018-03-26T14:46:23.639Z,836
2018-03-26T14:47:05.161Z,824
2018-03-26T14:47:46.008Z,820
2018-03-26T14:48:26.423Z,856
2018-03-26T14:49:06.853Z,900
2018-03-26T14:49:48.489Z,940
2018-03-26T14:50:28.931Z,968
2018-03-26T14:51:09.315Z,968
2018-03-26T14:51:50.439Z,964
2018-03-26T14:52:32.012Z,972
2018-03-26T14:53:12.462Z,984
2018-03-26T14:53:53.210Z,1000
2018-03-26T14:54:33.749Z,1004
2018-03-26T14:55:13.908Z,992
2018-03-26T14:55:54.337Z,1148
2018-03-26T14:56:34.748Z,1000
2018-03-26T14:57:15.173Z,1196
2018-03-26T14:57:55.554Z,960
2018-03-26T14:58:35.989Z,988
2018-03-26T14:59:16.585Z,1028
2018-03-26T14:59:57.457Z,1048
2018-03-26T15:00:38.100Z,1048
2018-03-26T15:01:18.425Z,1044
2018-03-26T15:01:58.975Z,1064
2018-03-26T15:02:39.583Z,1096
2018-03-26T15:03:20.997Z,1116
2018-03-26T15:04:01.785Z,1112
2018-03-26T15:04:41.535Z,1108
2018-03-26T15:05:21.985Z,1080
2018-03-26T15:06:02.491Z,1036
2018-03-26T15:06:44.043Z,1004
2018-03-26T15:07:24.302Z,984
2018-03-26T15:08:05.311Z,992
2018-03-26T15:08:46.793Z,1012
2018-03-26T15:09:26.906Z,1040
2018-03-26T15:10:07.472Z,1068
2018-03-26T15:10:48.134Z,1092
2018-03-26T15:11:30.056Z,1124
2018-03-26T15:12:10.307Z,1144
2018-03-26T15:12:50.342Z,1156
2018-03-26T15:13:30.825Z,1160
2018-03-26T15:14:11.597Z,1184
2018-03-26T15:14:52.074Z,1220
2018-03-26T15:15:32.822Z,1240
2018-03-26T15:16:13.603Z,1272
2018-03-26T15:16:54.802Z,1304
2018-03-26T15:17:35.096Z,1340
2018-03-26T15:18:15.542Z,1376
2018-03-26T15:18:56.814Z,1400
2018-03-26T15:19:36.845Z,1404
2018-03-26T15:20:17.325Z,1400
2018-03-26T15:20:58.305Z,1532
2018-03-26T15:21:39.826Z,1624
2018-03-26T15:22:20.559Z,1620
2018-03-26T15:23:01.344Z,1612
2018-03-26T15:23:41.004Z,1628
2018-03-26T15:24:21.523Z,1628
2018-03-26T15:25:03.354Z,1588
2018-03-26T15:25:43.814Z,1536
2018-03-26T15:26:23.961Z,1476
2018-03-26T15:27:04.541Z,1432
2018-03-26T15:27:45.411Z,1388
2018-03-26T15:28:26.855Z,1364
2018-03-26T15:29:06.742Z,1364
2018-03-26T15:29:47.298Z,1360
2018-03-26T15:30:27.875Z,1324
2018-03-26T15:31:08.778Z,1328
2018-03-26T15:31:50.011Z,1360
2018-03-26T15:32:31.671Z,1384
2018-03-26T15:33:12.447Z,1452
2018-03-26T15:33:52.729Z,1520
2018-03-26T15:34:33.341Z,1504
2018-03-26T15:35:13.737Z,1548
2018-03-26T15:35:54.239Z,1536
2018-03-26T15:36:34.854Z,1456
2018-03-26T15:37:15.322Z,1416
2018-03-26T15:37:56.267Z,1420
2018-03-26T15:38:37.300Z,1448
2018-03-26T15:39:17.253Z,1516
2018-03-26T15:39:57.839Z,1432
2018-03-26T15:40:38.301Z,1444
2018-03-26T15:41:18.808Z,1460
2018-03-26T15:41:59.144Z,1464
2018-03-26T15:42:39.575Z,1548
2018-03-26T15:43:19.993Z,1552
2018-03-26T15:44:01.189Z,1476
2018-03-26T15:44:41.656Z,1424
2018-03-26T15:45:22.096Z,1408
2018-03-26T15:46:02.530Z,1380
2018-03-26T15:46:42.943Z,1252
2018-03-26T15:47:23.364Z,1172
2018-03-26T15:48:03.762Z,1124
2018-03-26T15:48:44.159Z,1092
2018-03-26T15:49:24.599Z,1064
2018-03-26T15:50:05.002Z,1024
2018-03-26T15:50:45.416Z,968
2018-03-26T15:51:25.813Z,912
2018-03-26T15:52:06.360Z,856
2018-03-26T15:52:46.756Z,792
2018-03-26T15:53:27.184Z,732
2018-03-26T15:54:07.584Z,692
2018-03-26T15:54:48.282Z,644
2018-03-26T15:55:28.756Z,676
2018-03-26T15:56:09.708Z,624
2018-03-26T15:56:50.088Z,640
2018-03-26T15:57:30.495Z,568
2018-03-26T15:58:10.850Z,560
2018-03-26T15:58:51.213Z,540